Time;durP1;ratioP1;P1;durP2;ratioP2;P2;SDS_P1;SDS_P2;PMS_P1;PMS_P2;Temp;Humidity;BMP_temperature;BMP_pressure;BME280_temperature;BME280_humidity;BME280_pressure;Samples;Min_cycle;Max_cycle;Signal;HPM_P1;HPM_P2
2022/03/04 00:01:50;;;;;;;75.97;27.45;;;;;;;;;;4974246;28;100216;-73
2022/03/04 00:04:23;;;;;;;67.70;23.30;;;;;;;;;;4976305;28;100418;-71
2022/03/04 00:06:50;;;;;;;68.38;24.95;;;;;;;;;;4972407;28;100829;-71
2022/03/04 00:09:16;;;;;;;58.28;21.23;;;;;;;;;;4974179;28;100015;-71
2022/03/04 00:11:43;;;;;;;65.35;23.00;;;;;;;;;;4955328;28;102259;-71
2022/03/04 00:14:12;;;;;;;58.90;21.35;;;;;;;;;;4973386;28;101371;-71
2022/03/04 00:16:38;;;;;;;60.97;22.63;;;;;;;;;;4974450;28;100532;-72
2022/03/04 00:19:09;;;;;;;55.72;21.85;;;;;;;;;;4974918;28;101334;-72
2022/03/04 00:21:37;;;;;;;53.03;18.42;;;;;;;;;;4974537;28;100022;-72
2022/03/04 00:24:05;;;;;;;52.50;20.23;;;;;;;;;;4972952;28;100687;-72
2022/03/04 00:26:32;;;;;;;52.13;19.42;;;;;;;;;;4974094;28;102096;-72
2022/03/04 00:28:59;;;;;;;44.83;17.67;;;;;;;;;;4972982;28;100069;-72
2022/03/04 00:31:26;;;;;;;43.03;16.85;;;;;;;;;;4957120;28;100063;-72
2022/03/04 00:33:52;;;;;;;55.03;20.23;;;;;;;;;;4972197;28;100919;-72
2022/03/04 00:36:22;;;;;;;42.67;16.55;;;;;;;;;;4956583;28;100576;-72
2022/03/04 00:38:52;;;;;;;38.75;15.52;;;;;;;;;;4972581;28;100153;-72
2022/03/04 00:41:20;;;;;;;45.50;16.23;;;;;;;;;;4957057;28;100065;-72
2022/03/04 00:43:47;;;;;;;37.08;15.02;;;;;;;;;;4956583;28;103395;-72
2022/03/04 00:46:14;;;;;;;38.58;15.95;;;;;;;;;;4973867;28;100666;-72
2022/03/04 00:48:41;;;;;;;41.80;16.38;;;;;;;;;;4973367;28;100033;-71
2022/03/04 00:51:08;;;;;;;39.03;14.82;;;;;;;;;;4972662;28;101790;-72
2022/03/04 00:53:35;;;;;;;43.40;15.30;;;;;;;;;;4956580;28;100167;-72
2022/03/04 00:56:02;;;;;;;49.03;16.98;;;;;;;;;;4972502;28;100733;-72
2022/03/04 00:58:29;;;;;;;38.95;14.43;;;;;;;;;;4956131;28;99964;-72
2022/03/04 01:00:56;;;;;;;42.10;15.82;;;;;;;;;;4974063;28;100752;-72
2022/03/04 01:03:23;;;;;;;36.70;14.60;;;;;;;;;;4972442;28;100302;-72
2022/03/04 01:05:51;;;;;;;38.00;14.52;;;;;;;;;;4955816;28;100523;-72
2022/03/04 01:08:17;;;;;;;30.50;12.18;;;;;;;;;;4974109;28;101149;-71
2022/03/04 01:10:44;;;;;;;40.03;15.80;;;;;;;;;;4972627;28;100330;-72
2022/03/04 01:13:11;;;;;;;41.63;15.35;;;;;;;;;;4972669;28;100121;-72
2022/03/04 01:15:39;;;;;;;37.33;12.20;;;;;;;;;;4973714;28;101245;-71
2022/03/04 01:18:05;;;;;;;40.47;15.07;;;;;;;;;;4972512;28;100242;-71
2022/03/04 01:20:33;;;;;;;39.92;15.50;;;;;;;;;;4940175;28;100132;-71
2022/03/04 01:23:00;;;;;;;36.03;14.93;;;;;;;;;;4972719;28;100186;-71
2022/03/04 01:25:27;;;;;;;32.13;13.50;;;;;;;;;;4972366;28;100046;-71
2022/03/04 01:27:54;;;;;;;46.15;14.80;;;;;;;;;;4973502;28;100176;-71
2022/03/04 01:30:20;;;;;;;42.72;15.55;;;;;;;;;;4972412;28;100211;-71
2022/03/04 01:32:47;;;;;;;40.78;14.48;;;;;;;;;;4971813;28;100224;-71
2022/03/04 01:35:14;;;;;;;41.53;14.75;;;;;;;;;;4955787;28;103307;-71
2022/03/04 01:37:41;;;;;;;38.45;13.00;;;;;;;;;;4971809;28;100113;-71
2022/03/04 01:40:08;;;;;;;38.05;13.95;;;;;;;;;;4972769;28;100090;-71
2022/03/04 01:42:35;;;;;;;37.60;15.50;;;;;;;;;;4971755;28;100183;-72
2022/03/04 01:45:03;;;;;;;37.20;14.15;;;;;;;;;;4955726;28;100729;-72
2022/03/04 01:47:30;;;;;;;33.63;13.50;;;;;;;;;;4971830;28;99980;-72
2022/03/04 01:49:57;;;;;;;37.55;13.18;;;;;;;;;;4987654;28;99985;-73
2022/03/04 01:52:23;;;;;;;40.40;14.50;;;;;;;;;;4972007;28;100457;-72
2022/03/04 01:54:50;;;;;;;39.65;15.05;;;;;;;;;;4971708;28;100714;-72
2022/03/04 01:57:17;;;;;;;35.53;13.55;;;;;;;;;;4972197;28;100100;-72
2022/03/04 01:59:44;;;;;;;38.10;14.57;;;;;;;;;;4973388;28;99944;-72
2022/03/04 02:02:10;;;;;;;38.95;14.55;;;;;;;;;;4973241;28;102429;-73
2022/03/04 02:04:37;;;;;;;32.83;13.45;;;;;;;;;;4973342;28;100536;-72
2022/03/04 02:07:04;;;;;;;37.15;15.27;;;;;;;;;;4971137;28;100243;-72
2022/03/04 02:09:31;;;;;;;41.10;15.05;;;;;;;;;;4955578;28;100090;-72
2022/03/04 02:11:58;;;;;;;39.42;13.90;;;;;;;;;;4970616;28;100515;-72
2022/03/04 02:14:25;;;;;;;30.08;12.20;;;;;;;;;;4970640;28;101193;-72
2022/03/04 02:16:55;;;;;;;33.58;14.35;;;;;;;;;;4971224;28;100120;-73
2022/03/04 02:19:22;;;;;;;38.60;15.13;;;;;;;;;;4955088;28;100085;-72
2022/03/04 02:22:00;;;;;;;34.85;14.23;;;;;;;;;;4971010;28;101253;-72
2022/03/04 02:24:28;;;;;;;41.55;14.43;;;;;;;;;;4956034;28;100724;-72
2022/03/04 02:26:56;;;;;;;37.05;14.73;;;;;;;;;;4971473;28;100136;-72
2022/03/04 02:29:23;;;;;;;37.88;15.38;;;;;;;;;;4956067;28;99989;-72
2022/03/04 02:31:50;;;;;;;39.58;15.48;;;;;;;;;;4970163;28;103666;-72
2022/03/04 02:34:17;;;;;;;41.53;15.20;;;;;;;;;;4970610;28;100660;-72
2022/03/04 02:36:44;;;;;;;38.35;15.95;;;;;;;;;;4971905;28;100189;-72
2022/03/04 02:39:10;;;;;;;43.13;16.58;;;;;;;;;;4971346;28;100255;-72
2022/03/04 02:41:38;;;;;;;38.70;15.45;;;;;;;;;;4954682;28;100970;-73
2022/03/04 02:44:07;;;;;;;42.38;17.30;;;;;;;;;;4954744;28;100602;-72
2022/03/04 02:46:34;;;;;;;39.22;13.95;;;;;;;;;;4953966;28;100202;-72
2022/03/04 02:49:02;;;;;;;39.88;15.45;;;;;;;;;;4971512;28;100117;-72
2022/03/04 02:51:30;;;;;;;44.45;16.60;;;;;;;;;;4971672;28;100395;-72
2022/03/04 02:53:57;;;;;;;47.35;17.65;;;;;;;;;;4954749;28;100617;-73
2022/03/04 02:56:23;;;;;;;43.53;16.00;;;;;;;;;;4954818;28;100165;-72
2022/03/04 02:58:50;;;;;;;45.10;15.50;;;;;;;;;;4971072;28;100078;-72
2022/03/04 03:01:17;;;;;;;50.90;17.58;;;;;;;;;;4956514;28;100397;-72
2022/03/04 03:03:45;;;;;;;40.17;15.68;;;;;;;;;;4975052;28;100671;-73
2022/03/04 03:06:12;;;;;;;48.45;16.50;;;;;;;;;;4975220;28;99996;-72
2022/03/04 03:08:39;;;;;;;55.15;19.40;;;;;;;;;;4975758;28;100084;-72
2022/03/04 03:11:06;;;;;;;39.00;15.70;;;;;;;;;;4973028;28;100340;-73
2022/03/04 03:13:34;;;;;;;46.80;18.17;;;;;;;;;;4975068;28;100580;-72
2022/03/04 03:16:02;;;;;;;38.05;14.63;;;;;;;;;;4974323;28;100925;-73
2022/03/04 03:18:29;;;;;;;46.17;18.08;;;;;;;;;;4974787;28;100135;-72
2022/03/04 03:20:56;;;;;;;38.80;15.13;;;;;;;;;;4973701;28;100238;-72
2022/03/04 03:23:23;;;;;;;39.75;14.90;;;;;;;;;;4973813;28;100680;-72
2022/03/04 03:25:50;;;;;;;51.38;19.73;;;;;;;;;;4973487;28;100135;-73
2022/03/04 03:28:17;;;;;;;47.47;17.10;;;;;;;;;;4974176;28;100060;-72
2022/03/04 03:30:43;;;;;;;47.58;17.23;;;;;;;;;;4974487;28;100347;-72
2022/03/04 03:33:10;;;;;;;52.08;17.65;;;;;;;;;;4974823;28;100962;-73
2022/03/04 03:35:37;;;;;;;46.03;17.50;;;;;;;;;;4975692;28;99985;-72
2022/03/04 03:38:04;;;;;;;48.80;17.55;;;;;;;;;;4975474;28;100376;-72
2022/03/04 03:40:31;;;;;;;38.13;15.52;;;;;;;;;;4974723;28;100240;-72
2022/03/04 03:42:57;;;;;;;50.15;18.77;;;;;;;;;;4974787;28;100667;-72
2022/03/04 03:45:24;;;;;;;48.28;17.52;;;;;;;;;;4975474;28;100142;-72
2022/03/04 03:47:52;;;;;;;46.13;16.88;;;;;;;;;;4975326;28;99837;-73
2022/03/04 03:50:19;;;;;;;43.03;16.40;;;;;;;;;;4973390;28;100154;-72
2022/03/04 03:52:46;;;;;;;35.65;14.77;;;;;;;;;;4973606;28;100805;-72
2022/03/04 03:55:13;;;;;;;46.00;17.65;;;;;;;;;;4973880;28;100068;-73
2022/03/04 03:57:40;;;;;;;42.05;15.90;;;;;;;;;;4973978;28;100018;-75
2022/03/04 04:00:07;;;;;;;38.00;15.88;;;;;;;;;;4984619;28;100419;-72
2022/03/04 04:02:43;;;;;;;38.63;15.80;;;;;;;;;;4974326;28;100830;-72
2022/03/04 04:05:12;;;;;;;42.53;16.10;;;;;;;;;;4938771;28;100174;-73
2022/03/04 04:07:39;;;;;;;50.80;17.58;;;;;;;;;;4987415;28;100077;-72
2022/03/04 04:10:06;;;;;;;44.90;16.75;;;;;;;;;;4954596;28;100359;-72
2022/03/04 04:12:33;;;;;;;53.20;17.40;;;;;;;;;;4953266;28;102159;-72
2022/03/04 04:15:01;;;;;;;46.47;17.35;;;;;;;;;;4986576;28;99980;-72
2022/03/04 04:17:28;;;;;;;49.42;17.63;;;;;;;;;;4970554;28;99945;-72
2022/03/04 04:19:54;;;;;;;38.85;16.08;;;;;;;;;;4954578;28;100193;-73
2022/03/04 04:22:21;;;;;;;50.13;17.65;;;;;;;;;;4970474;28;101265;-72
2022/03/04 04:24:48;;;;;;;48.38;18.65;;;;;;;;;;4987124;28;99838;-74
2022/03/04 04:27:15;;;;;;;44.30;16.55;;;;;;;;;;4987214;28;99846;-72
2022/03/04 04:29:41;;;;;;;53.08;18.88;;;;;;;;;;4966383;28;100282;-72
2022/03/04 04:32:09;;;;;;;42.13;16.77;;;;;;;;;;4972163;28;100929;-72
2022/03/04 04:34:36;;;;;;;52.13;17.58;;;;;;;;;;4970126;28;100221;-72
2022/03/04 04:37:03;;;;;;;42.67;15.00;;;;;;;;;;4970591;28;100404;-72
2022/03/04 04:39:30;;;;;;;42.75;16.13;;;;;;;;;;4970129;28;100151;-72
2022/03/04 04:41:56;;;;;;;52.28;18.00;;;;;;;;;;4971232;28;100677;-72
2022/03/04 04:44:23;;;;;;;57.72;19.88;;;;;;;;;;4970406;28;100141;-72
2022/03/04 04:46:50;;;;;;;45.63;17.65;;;;;;;;;;4954157;28;100085;-72
2022/03/04 04:49:17;;;;;;;53.20;19.30;;;;;;;;;;4969858;28;100339;-72
2022/03/04 04:51:47;;;;;;;50.33;18.80;;;;;;;;;;4953968;28;100670;-72
2022/03/04 04:54:14;;;;;;;46.60;16.38;;;;;;;;;;4954796;28;101600;-72
2022/03/04 04:56:41;;;;;;;60.45;20.98;;;;;;;;;;4970538;28;100161;-72
2022/03/04 04:59:07;;;;;;;43.40;15.95;;;;;;;;;;4970955;28;100308;-72
2022/03/04 05:01:34;;;;;;;57.35;21.10;;;;;;;;;;4970948;28;102187;-70
2022/03/04 05:04:02;;;;;;;47.72;18.27;;;;;;;;;;4953635;28;100078;-71
2022/03/04 05:06:28;;;;;;;54.53;18.48;;;;;;;;;;4971092;28;100158;-70
2022/03/04 05:08:58;;;;;;;52.92;19.20;;;;;;;;;;4970941;28;100244;-71
2022/03/04 05:11:24;;;;;;;58.78;21.20;;;;;;;;;;4953397;28;101193;-71
2022/03/04 05:13:51;;;;;;;54.40;18.63;;;;;;;;;;4953726;28;100256;-71
2022/03/04 05:16:18;;;;;;;45.92;16.23;;;;;;;;;;4954002;28;100094;-71
2022/03/04 05:18:45;;;;;;;48.15;18.42;;;;;;;;;;4970598;28;100192;-72
2022/03/04 05:21:12;;;;;;;44.08;17.13;;;;;;;;;;4971229;28;100593;-72
2022/03/04 05:26:24;;;;;;;43.78;16.77;;;;;;;;;;4955950;28;100151;-71
2022/03/04 05:28:50;;;;;;;42.00;15.57;;;;;;;;;;4969074;28;102025;-71
2022/03/04 05:31:17;;;;;;;50.20;18.45;;;;;;;;;;4953462;28;100814;-71
2022/03/04 05:33:44;;;;;;;47.80;18.08;;;;;;;;;;4953720;28;100145;-71
2022/03/04 05:36:11;;;;;;;50.45;18.05;;;;;;;;;;4970879;28;100079;-71
2022/03/04 05:38:38;;;;;;;56.35;18.65;;;;;;;;;;4969439;28;100146;-71
2022/03/04 05:41:04;;;;;;;48.53;17.08;;;;;;;;;;4952946;28;100572;-72
2022/03/04 05:43:31;;;;;;;47.55;16.73;;;;;;;;;;4969369;28;100102;-72
2022/03/04 05:45:58;;;;;;;40.75;14.80;;;;;;;;;;4954075;28;100061;-72
2022/03/04 05:48:26;;;;;;;40.90;16.80;;;;;;;;;;4970274;28;100162;-73
2022/03/04 05:50:53;;;;;;;47.20;16.30;;;;;;;;;;4970125;28;101647;-72
2022/03/04 05:53:19;;;;;;;43.38;16.45;;;;;;;;;;4970428;28;99862;-73
2022/03/04 05:55:47;;;;;;;51.25;17.35;;;;;;;;;;4969019;28;100428;-72
2022/03/04 05:58:14;;;;;;;38.35;14.40;;;;;;;;;;4969292;28;100241;-72
2022/03/04 06:00:40;;;;;;;38.65;14.70;;;;;;;;;;4969077;28;100580;-72
2022/03/04 06:03:07;;;;;;;47.33;17.42;;;;;;;;;;4970541;28;100084;-72
2022/03/04 06:05:34;;;;;;;47.13;15.82;;;;;;;;;;4970165;28;100017;-73
2022/03/04 06:08:01;;;;;;;39.38;15.32;;;;;;;;;;4969900;28;100798;-72
2022/03/04 06:10:28;;;;;;;44.10;15.32;;;;;;;;;;4969525;28;100539;-72
2022/03/04 06:12:55;;;;;;;43.50;15.95;;;;;;;;;;4968751;28;102888;-72
2022/03/04 06:15:22;;;;;;;44.22;15.60;;;;;;;;;;4968982;28;100145;-72
2022/03/04 06:17:49;;;;;;;42.70;15.75;;;;;;;;;;4952388;28;100125;-72
2022/03/04 06:20:16;;;;;;;44.58;17.33;;;;;;;;;;4969564;28;101849;-73
2022/03/04 06:22:43;;;;;;;36.50;14.07;;;;;;;;;;4952725;28;100384;-72
2022/03/04 06:25:10;;;;;;;37.10;15.07;;;;;;;;;;4969150;28;100056;-72
2022/03/04 06:27:38;;;;;;;37.53;15.35;;;;;;;;;;4968431;28;100270;-73
2022/03/04 06:30:07;;;;;;;43.20;16.35;;;;;;;;;;4969214;28;101317;-72
2022/03/04 06:32:34;;;;;;;44.38;17.33;;;;;;;;;;4968542;28;100083;-72
2022/03/04 06:35:01;;;;;;;36.05;15.02;;;;;;;;;;4969671;28;99949;-73
2022/03/04 06:37:27;;;;;;;39.30;15.00;;;;;;;;;;4965487;28;100865;-71
2022/03/04 06:39:54;;;;;;;43.58;16.70;;;;;;;;;;4968553;28;100806;-71
2022/03/04 06:42:21;;;;;;;34.22;14.23;;;;;;;;;;4969195;28;99776;-70
2022/03/04 06:44:48;;;;;;;44.55;16.23;;;;;;;;;;4968409;28;100225;-73
2022/03/04 06:47:15;;;;;;;38.10;14.63;;;;;;;;;;4969814;28;100226;-73
2022/03/04 06:49:42;;;;;;;35.38;14.35;;;;;;;;;;4969938;28;100651;-71
2022/03/04 06:52:08;;;;;;;40.72;15.15;;;;;;;;;;4968308;28;100110;-71
2022/03/04 06:54:37;;;;;;;37.22;14.98;;;;;;;;;;4968705;28;103346;-72
2022/03/04 06:57:04;;;;;;;33.92;13.93;;;;;;;;;;4968516;28;103233;-71
2022/03/04 07:00:20;;;;;;;37.80;14.82;;;;;;;;;;4952328;28;100815;-76
2022/03/04 07:02:39;;;;;;;37.53;13.95;;;;;;;;;;4947028;28;101141;-72
2022/03/04 07:05:07;;;;;;;42.30;15.88;;;;;;;;;;4952450;28;99826;-72
2022/03/04 07:07:34;;;;;;;36.03;12.68;;;;;;;;;;4967399;28;100246;-72
2022/03/04 07:10:01;;;;;;;39.85;14.15;;;;;;;;;;4967658;28;100722;-72
2022/03/04 07:12:27;;;;;;;37.30;13.40;;;;;;;;;;4968342;28;100060;-73
2022/03/04 07:14:54;;;;;;;39.78;15.60;;;;;;;;;;4984629;28;101515;-72
2022/03/04 07:17:23;;;;;;;42.13;14.57;;;;;;;;;;4952521;28;100801;-73
2022/03/04 07:19:50;;;;;;;42.58;14.65;;;;;;;;;;4968332;28;103671;-71
2022/03/04 07:22:16;;;;;;;43.65;16.58;;;;;;;;;;4968274;28;100039;-71
2022/03/04 07:24:44;;;;;;;51.92;17.13;;;;;;;;;;4968652;28;100076;-71
2022/03/04 07:27:11;;;;;;;37.03;13.95;;;;;;;;;;4969088;28;100202;-71
2022/03/04 07:29:38;;;;;;;39.08;14.27;;;;;;;;;;4969147;28;100564;-72
2022/03/04 07:32:05;;;;;;;42.13;13.13;;;;;;;;;;4969180;28;100089;-72
2022/03/04 07:34:31;;;;;;;46.85;17.60;;;;;;;;;;4968267;28;100121;-72
2022/03/04 07:36:58;;;;;;;43.28;15.52;;;;;;;;;;4967991;28;100194;-72
2022/03/04 07:39:25;;;;;;;42.22;14.85;;;;;;;;;;4969197;28;100785;-72
2022/03/04 07:41:52;;;;;;;38.50;15.85;;;;;;;;;;4969101;28;100109;-72
2022/03/04 07:44:26;;;;;;;;;;;;;;;;;;4969831;28;100133;-72
2022/03/04 07:46:53;;;;;;;43.22;16.08;;;;;;;;;;4968337;28;101417;-72
2022/03/04 07:49:20;;;;;;;44.13;17.30;;;;;;;;;;4971555;28;100558;-72
2022/03/04 07:51:48;;;;;;;38.65;15.93;;;;;;;;;;4972743;28;100245;-72
2022/03/04 07:54:14;;;;;;;38.58;15.88;;;;;;;;;;4972236;28;99816;-72
2022/03/04 07:56:41;;;;;;;38.35;14.85;;;;;;;;;;4971715;28;100296;-73
2022/03/04 07:59:08;;;;;;;39.75;16.48;;;;;;;;;;4970935;28;100908;-71
2022/03/04 08:01:35;;;;;;;51.17;17.95;;;;;;;;;;4972655;28;100025;-73
2022/03/04 08:04:05;;;;;;;53.40;19.40;;;;;;;;;;4971627;28;100006;-73
2022/03/04 08:06:32;;;;;;;49.10;19.52;;;;;;;;;;4971725;28;100239;-71
2022/03/04 08:08:59;;;;;;;48.78;21.08;;;;;;;;;;4971998;28;100615;-72
2022/03/04 08:11:28;;;;;;;50.22;19.70;;;;;;;;;;4972141;28;100077;-71
2022/03/04 08:13:55;;;;;;;49.33;20.90;;;;;;;;;;4971190;28;100104;-71
2022/03/04 08:16:21;;;;;;;49.33;19.35;;;;;;;;;;4970748;28;100178;-72
2022/03/04 08:18:48;;;;;;;49.70;20.05;;;;;;;;;;4971958;28;100623;-72
2022/03/04 08:21:15;;;;;;;44.85;16.98;;;;;;;;;;4970535;28;100223;-72
2022/03/04 08:23:42;;;;;;;42.10;16.45;;;;;;;;;;4970919;28;100207;-72
2022/03/04 08:26:09;;;;;;;41.35;15.45;;;;;;;;;;4970806;28;100226;-72
2022/03/04 08:28:36;;;;;;;45.10;17.83;;;;;;;;;;4954321;28;100602;-72
2022/03/04 08:31:10;;;;;;;43.17;16.25;;;;;;;;;;4971541;28;100534;-72
2022/03/04 08:33:40;;;;;;;58.03;19.05;;;;;;;;;;4955897;28;102274;-72
2022/03/04 08:36:07;;;;;;;50.50;19.05;;;;;;;;;;4970406;28;100673;-72
2022/03/04 08:38:33;;;;;;;56.47;19.33;;;;;;;;;;4971786;28;100528;-72
2022/03/04 08:41:01;;;;;;;39.70;15.45;;;;;;;;;;4970710;28;100047;-72
2022/03/04 08:43:28;;;;;;;46.53;18.05;;;;;;;;;;4954367;28;100198;-72
2022/03/04 08:45:55;;;;;;;43.20;17.33;;;;;;;;;;4971138;28;100232;-71
2022/03/04 08:48:23;;;;;;;50.97;18.58;;;;;;;;;;4971008;28;100643;-73
2022/03/04 08:50:50;;;;;;;47.47;18.83;;;;;;;;;;4970390;28;100233;-72
2022/03/04 08:53:18;;;;;;;47.00;18.73;;;;;;;;;;4971540;28;99850;-72
2022/03/04 08:55:45;;;;;;;54.00;18.90;;;;;;;;;;4971280;28;100231;-72
2022/03/04 08:58:12;;;;;;;51.20;18.08;;;;;;;;;;4937263;28;101242;-72
2022/03/04 09:00:39;;;;;;;54.78;20.92;;;;;;;;;;4971476;28;99874;-72
2022/03/04 09:03:06;;;;;;;48.53;18.25;;;;;;;;;;4970550;28;99895;-72
2022/03/04 09:05:34;;;;;;;65.00;22.50;;;;;;;;;;4970849;28;100191;-73
2022/03/04 09:08:03;;;;;;;59.75;22.25;;;;;;;;;;4969617;28;100271;-73
2022/03/04 09:10:30;;;;;;;57.30;21.85;;;;;;;;;;4953664;28;99896;-72
2022/03/04 09:13:04;;;;;;;60.47;21.10;;;;;;;;;;4969369;28;100149;-72
2022/03/04 09:15:31;;;;;;;56.97;21.35;;;;;;;;;;4971078;28;100248;-72
2022/03/04 09:17:58;;;;;;;56.38;20.50;;;;;;;;;;4969987;28;100760;-72
2022/03/04 09:20:26;;;;;;;59.33;21.65;;;;;;;;;;4969629;28;100143;-72
2022/03/04 09:22:55;;;;;;;59.72;21.10;;;;;;;;;;4970129;28;100119;-72
2022/03/04 09:25:22;;;;;;;52.63;19.48;;;;;;;;;;4969891;28;100273;-72
2022/03/04 09:27:50;;;;;;;52.95;19.33;;;;;;;;;;4986161;28;103161;-72
2022/03/04 09:30:17;;;;;;;74.35;24.17;;;;;;;;;;4969606;28;99972;-72
2022/03/04 09:32:44;;;;;;;55.70;19.75;;;;;;;;;;4969691;28;100026;-72
2022/03/04 09:35:10;;;;;;;63.80;22.77;;;;;;;;;;4970171;28;100131;-74
2022/03/04 09:37:37;;;;;;;63.78;22.73;;;;;;;;;;4952699;28;102716;-72
2022/03/04 09:40:06;;;;;;;56.45;21.23;;;;;;;;;;4969629;28;100094;-72
2022/03/04 09:42:33;;;;;;;68.20;23.60;;;;;;;;;;4969585;28;100193;-72
2022/03/04 09:45:00;;;;;;;64.68;22.83;;;;;;;;;;4968931;28;100539;-72
2022/03/04 09:47:28;;;;;;;67.90;24.20;;;;;;;;;;4969118;28;101115;-72
2022/03/04 09:49:57;;;;;;;65.05;21.05;;;;;;;;;;4969378;28;100102;-72
2022/03/04 09:52:24;;;;;;;80.07;26.52;;;;;;;;;;4969713;28;100162;-72
2022/03/04 09:54:52;;;;;;;54.50;18.98;;;;;;;;;;4970078;28;100309;-72
2022/03/04 09:57:19;;;;;;;68.90;21.80;;;;;;;;;;4969017;28;100666;-72
2022/03/04 09:59:46;;;;;;;60.80;20.75;;;;;;;;;;4968628;28;100735;-72
2022/03/04 10:02:13;;;;;;;66.15;21.75;;;;;;;;;;4953249;28;100073;-72
2022/03/04 10:04:40;;;;;;;65.38;21.13;;;;;;;;;;4969120;28;102969;-72
2022/03/04 10:07:11;;;;;;;54.08;18.02;;;;;;;;;;4969153;28;101645;-72
2022/03/04 10:09:45;;;;;;;58.15;19.27;;;;;;;;;;4969754;28;100228;-72
2022/03/04 10:12:13;;;;;;;64.93;22.27;;;;;;;;;;4969405;28;100276;-72
2022/03/04 10:15:01;;;;;;;56.03;18.20;;;;;;;;;;4952480;28;100250;-72
2022/03/04 10:17:31;;;;;;;59.38;21.80;;;;;;;;;;4970540;28;101718;-72
2022/03/04 10:19:59;;;;;;;76.10;23.75;;;;;;;;;;4968783;28;100248;-71
2022/03/04 10:22:46;;;;;;;57.38;19.95;;;;;;;;;;4985035;28;100046;-72
2022/03/04 10:25:21;;;;;;;58.17;21.17;;;;;;;;;;4969613;28;100316;-71
2022/03/04 10:27:47;;;;;;;61.95;19.95;;;;;;;;;;4968422;28;100656;-72
2022/03/04 10:30:15;;;;;;;55.83;19.90;;;;;;;;;;4952712;28;99812;-72
2022/03/04 10:32:42;;;;;;;62.17;21.33;;;;;;;;;;4968280;28;100104;-71
2022/03/04 10:35:10;;;;;;;59.45;20.98;;;;;;;;;;4969618;28;100445;-71
2022/03/04 10:37:43;;;;;;;57.17;20.10;;;;;;;;;;4968568;28;100675;-71
2022/03/04 10:40:26;;;;;;;54.85;19.75;;;;;;;;;;4969710;28;100037;-73
2022/03/04 10:42:56;;;;;;;46.88;16.75;;;;;;;;;;4969249;28;102594;-72
2022/03/04 10:45:37;;;;;;;56.00;19.52;;;;;;;;;;4952095;28;100200;-72
2022/03/04 10:48:07;;;;;;;47.00;16.25;;;;;;;;;;4952106;28;100681;-72
2022/03/04 10:50:47;;;;;;;48.97;18.45;;;;;;;;;;4969307;28;99957;-72
2022/03/04 10:53:16;;;;;;;57.35;19.65;;;;;;;;;;4968307;28;101415;-72
2022/03/04 10:55:50;;;;;;;54.33;19.27;;;;;;;;;;4968098;28;101525;-72
2022/03/04 10:58:18;;;;;;;57.45;21.38;;;;;;;;;;4952041;28;103557;-72
2022/03/04 11:00:47;;;;;;;56.35;19.95;;;;;;;;;;4969751;28;100062;-72
2022/03/04 11:03:34;;;;;;;48.63;16.98;;;;;;;;;;4968316;28;100185;-72
2022/03/04 11:06:06;;;;;;;49.92;18.58;;;;;;;;;;4967140;28;102596;-72
2022/03/04 11:08:33;;;;;;;55.45;18.67;;;;;;;;;;4968669;28;100531;-72
2022/03/04 11:11:01;;;;;;;48.05;17.17;;;;;;;;;;4952535;28;99993;-72
2022/03/04 11:13:30;;;;;;;54.17;18.67;;;;;;;;;;4968423;28;100059;-73
2022/03/04 11:15:56;;;;;;;48.90;17.08;;;;;;;;;;4967967;28;101303;-72
2022/03/04 11:18:24;;;;;;;61.30;18.83;;;;;;;;;;4968507;28;103118;-72
2022/03/04 11:20:52;;;;;;;52.10;18.10;;;;;;;;;;4970452;28;100085;-72
2022/03/04 11:23:21;;;;;;;65.65;20.45;;;;;;;;;;4973681;28;99864;-72
2022/03/04 11:25:59;;;;;;;54.22;19.83;;;;;;;;;;4956337;28;100123;-72
2022/03/04 11:28:40;;;;;;;55.63;18.95;;;;;;;;;;4956854;28;101186;-72
2022/03/04 11:31:08;;;;;;;62.45;21.80;;;;;;;;;;4974220;28;100032;-72
2022/03/04 11:33:35;;;;;;;57.65;20.08;;;;;;;;;;4956214;28;100128;-72
2022/03/04 11:36:15;;;;;;;65.57;20.98;;;;;;;;;;4971865;28;100199;-73
2022/03/04 11:38:51;;;;;;;56.90;20.23;;;;;;;;;;4973314;28;100561;-72
2022/03/04 11:41:20;;;;;;;51.40;18.25;;;;;;;;;;4972564;28;100069;-72
2022/03/04 11:43:54;;;;;;;53.67;18.23;;;;;;;;;;4972302;28;99918;-71
2022/03/04 11:46:28;;;;;;;54.22;19.98;;;;;;;;;;4973103;28;100835;-71
2022/03/04 11:49:24;;;;;;;50.20;17.15;;;;;;;;;;4972663;28;100579;-71
2022/03/04 11:52:09;;;;;;;52.72;19.95;;;;;;;;;;4973040;28;99871;-71
2022/03/04 11:54:38;;;;;;;51.25;17.80;;;;;;;;;;4971935;28;101196;-71
2022/03/04 11:57:15;;;;;;;52.38;19.13;;;;;;;;;;4955352;28;100198;-71
2022/03/04 11:59:48;;;;;;;57.78;20.58;;;;;;;;;;4971941;28;100699;-72
2022/03/04 12:02:19;;;;;;;45.63;16.40;;;;;;;;;;4972935;28;100189;-71
2022/03/04 12:04:47;;;;;;;53.10;18.45;;;;;;;;;;4971688;28;99975;-71
2022/03/04 12:07:13;;;;;;;60.28;21.83;;;;;;;;;;4970318;28;100374;-72
2022/03/04 12:09:49;;;;;;;46.83;16.70;;;;;;;;;;4972556;28;100602;-71
2022/03/04 12:12:30;;;;;;;54.85;19.85;;;;;;;;;;4971795;28;99990;-71
2022/03/04 12:15:16;;;;;;;53.92;19.67;;;;;;;;;;4941916;28;100127;-71
2022/03/04 12:17:52;;;;;;;51.60;18.48;;;;;;;;;;4972260;28;100281;-72
2022/03/04 12:20:38;;;;;;;47.10;17.42;;;;;;;;;;4971376;28;100587;-71
2022/03/04 12:23:09;;;;;;;49.95;17.73;;;;;;;;;;4971328;28;99926;-72
2022/03/04 12:25:54;;;;;;;56.58;18.02;;;;;;;;;;4971152;28;100010;-71
2022/03/04 12:28:23;;;;;;;50.05;17.88;;;;;;;;;;4972455;28;100230;-71
2022/03/04 12:31:00;;;;;;;55.45;21.08;;;;;;;;;;4970746;28;100682;-71
2022/03/04 12:33:41;;;;;;;54.50;19.52;;;;;;;;;;4969538;28;100190;-71
2022/03/04 12:36:09;;;;;;;54.58;19.98;;;;;;;;;;4972088;28;99976;-71
2022/03/04 12:38:44;;;;;;;54.70;20.63;;;;;;;;;;4970485;28;100430;-72
2022/03/04 12:41:16;;;;;;;44.30;16.88;;;;;;;;;;4970825;28;101161;-72
2022/03/04 12:43:48;;;;;;;54.03;19.85;;;;;;;;;;4987867;28;99851;-72
2022/03/04 12:46:16;;;;;;;47.67;16.98;;;;;;;;;;4955121;28;100050;-72
2022/03/04 12:48:43;;;;;;;54.78;18.50;;;;;;;;;;4955001;28;100309;-72
2022/03/04 12:51:42;;;;;;;44.33;17.23;;;;;;;;;;4962737;28;100638;-72
2022/03/04 12:54:19;;;;;;;39.30;15.93;;;;;;;;;;4971870;28;100200;-71
2022/03/04 12:56:50;;;;;;;61.10;21.42;;;;;;;;;;4972332;28;99953;-71
2022/03/04 12:59:17;;;;;;;48.05;17.40;;;;;;;;;;4971442;28;100492;-73
2022/03/04 13:01:44;;;;;;;50.85;18.50;;;;;;;;;;4970144;28;101724;-72
2022/03/04 13:04:12;;;;;;;55.20;18.90;;;;;;;;;;4970948;28;100099;-71
2022/03/04 13:06:39;;;;;;;45.40;18.70;;;;;;;;;;4954219;28;99878;-72
2022/03/04 13:09:09;;;;;;;56.80;17.98;;;;;;;;;;4954185;28;100223;-74
2022/03/04 13:11:37;;;;;;;56.53;20.05;;;;;;;;;;4986883;28;101075;-72
2022/03/04 13:14:17;;;;;;;45.65;17.48;;;;;;;;;;4971597;28;100032;-72
2022/03/04 13:16:46;;;;;;;40.72;15.40;;;;;;;;;;4971122;28;100122;-72
2022/03/04 13:19:16;;;;;;;66.05;23.17;;;;;;;;;;4971545;28;100262;-72
2022/03/04 13:21:57;;;;;;;53.85;19.17;;;;;;;;;;4954759;28;101151;-72
2022/03/04 13:24:26;;;;;;;45.28;17.42;;;;;;;;;;4986370;28;99830;-71
2022/03/04 13:27:01;;;;;;;41.33;16.90;;;;;;;;;;4970706;28;99982;-72
2022/03/04 13:29:32;;;;;;;39.15;16.60;;;;;;;;;;4970255;28;100390;-73
2022/03/04 13:32:12;;;;;;;42.40;17.38;;;;;;;;;;4970905;28;101824;-73
2022/03/04 13:34:40;;;;;;;42.72;15.48;;;;;;;;;;4969810;28;99958;-72
2022/03/04 13:37:18;;;;;;;43.08;17.52;;;;;;;;;;4970408;28;99860;-72
2022/03/04 13:39:55;;;;;;;47.45;18.95;;;;;;;;;;4970053;28;99876;-72
2022/03/04 13:42:23;;;;;;;54.88;19.88;;;;;;;;;;4971422;28;100752;-72
2022/03/04 13:44:58;;;;;;;46.70;17.80;;;;;;;;;;4969521;28;100019;-72
2022/03/04 13:47:43;;;;;;;49.28;17.33;;;;;;;;;;4969755;28;100464;-73
2022/03/04 13:50:16;;;;;;;49.33;18.80;;;;;;;;;;4970748;28;100178;-72
2022/03/04 13:52:51;;;;;;;38.75;16.15;;;;;;;;;;4971093;28;100613;-71
2022/03/04 13:55:18;;;;;;;47.55;16.02;;;;;;;;;;4969840;28;100087;-72
2022/03/04 13:57:45;;;;;;;44.97;15.82;;;;;;;;;;4937868;28;100000;-73
2022/03/04 14:00:12;;;;;;;48.00;19.42;;;;;;;;;;4969967;28;100261;-72
2022/03/04 14:02:40;;;;;;;42.97;16.88;;;;;;;;;;4970757;28;101177;-72
2022/03/04 14:05:07;;;;;;;36.78;15.35;;;;;;;;;;4970098;28;100180;-72
2022/03/04 14:07:44;;;;;;;36.67;14.55;;;;;;;;;;4970225;28;100111;-73
2022/03/04 14:10:16;;;;;;;39.22;15.52;;;;;;;;;;4969456;28;100365;-72
2022/03/04 14:12:44;;;;;;;37.63;14.25;;;;;;;;;;4970606;28;100557;-72
2022/03/04 14:15:10;;;;;;;45.92;17.98;;;;;;;;;;4969948;28;100153;-73
2022/03/04 14:17:45;;;;;;;40.30;15.45;;;;;;;;;;4969520;28;102136;-72
2022/03/04 14:20:12;;;;;;;43.63;16.40;;;;;;;;;;4970466;28;100804;-71